createdAt,value
2018-03-22T00:00:46.953Z,94.2
2018-03-22T00:11:01.230Z,94.5
2018-03-22T00:21:15.437Z,93.8
2018-03-22T00:31:29.673Z,93.8
2018-03-22T00:41:44.647Z,93.6
2018-03-22T00:51:59.741Z,94.3
2018-03-22T01:02:13.867Z,93.8
2018-03-22T01:12:28.296Z,94.3
2018-03-22T01:22:42.997Z,94.2
2018-03-22T01:32:58.245Z,94
2018-03-22T01:43:12.170Z,94.3
2018-03-22T01:53:26.717Z,94.6
2018-03-22T02:03:41.606Z,94.2
2018-03-22T02:13:57.098Z,94.4
2018-03-22T02:24:11.255Z,94.1
2018-03-22T02:34:25.609Z,93.6
2018-03-22T02:44:40.299Z,93.5
2018-03-22T02:54:54.685Z,93.6
2018-03-22T03:05:09.168Z,94.4
2018-03-22T03:15:23.527Z,94.4
2018-03-22T03:25:38.269Z,94.4
2018-03-22T03:35:52.241Z,95.3
2018-03-22T03:46:07.153Z,95.5
2018-03-22T03:56:21.955Z,95.9
2018-03-22T04:06:35.626Z,96.3
2018-03-22T04:16:49.612Z,95.9
2018-03-22T04:27:04.419Z,95.2
2018-03-22T04:37:18.836Z,93.8
2018-03-22T04:47:32.907Z,92.5
2018-03-22T04:57:46.738Z,90.9
2018-03-22T05:08:01.020Z,89.2
2018-03-22T05:18:15.889Z,87.1
2018-03-22T05:28:29.836Z,85.7
2018-03-22T05:38:45.100Z,83
2018-03-22T05:48:59.220Z,79.7
2018-03-22T05:59:14.767Z,76.5
2018-03-22T06:09:28.442Z,74.5
2018-03-22T06:19:43.686Z,72.2
2018-03-22T06:29:59.066Z,70.9
2018-03-22T06:40:14.094Z,69
2018-03-22T06:50:29.436Z,68
2018-03-22T07:00:43.191Z,67
2018-03-22T07:10:57.983Z,66.4
2018-03-22T07:21:12.647Z,65.4
2018-03-22T07:31:27.116Z,64.7
2018-03-22T07:41:42.003Z,65
2018-03-22T07:51:56.077Z,64.4
2018-03-22T08:02:09.949Z,64.2
2018-03-22T08:12:25.323Z,64.2
2018-03-22T08:22:39.250Z,63.6
2018-03-22T08:32:53.984Z,63.8
2018-03-22T08:43:08.671Z,63.6
2018-03-22T08:53:23.342Z,63.5
2018-03-22T09:03:37.012Z,63.7
2018-03-22T09:13:51.612Z,63.7
2018-03-22T09:24:06.666Z,63.2
2018-03-22T09:34:20.599Z,63.4
2018-03-22T09:44:36.213Z,63.8
2018-03-22T09:54:51.642Z,64.2
2018-03-22T10:05:05.600Z,64.5
2018-03-22T10:15:20.556Z,64.2
2018-03-22T10:25:35.237Z,64.9
2018-03-22T10:35:49.662Z,65.2
2018-03-22T10:46:04.701Z,66.4
2018-03-22T10:56:19.327Z,68.2
2018-03-22T11:06:33.232Z,70.5
2018-03-22T11:16:47.566Z,72
2018-03-22T11:27:02.883Z,73.9
2018-03-22T11:37:18.244Z,76.2
2018-03-22T11:47:32.867Z,77.4
2018-03-22T11:57:46.889Z,79.1
2018-03-22T12:08:01.056Z,79.9
2018-03-22T12:18:15.195Z,80.6
2018-03-22T12:28:29.879Z,83
2018-03-22T12:38:43.738Z,89.2
2018-03-22T12:48:58.985Z,91.1
2018-03-22T12:59:12.991Z,92.9
2018-03-22T13:09:26.860Z,95.1
2018-03-22T13:19:42.317Z,96.6
2018-03-22T13:29:57.707Z,96.9
2018-03-22T13:40:12.759Z,98.1
2018-03-22T13:50:26.716Z,98.7
2018-03-22T14:00:42.001Z,98.3
2018-03-22T14:10:57.202Z,97.7
2018-03-22T14:21:11.098Z,96.1
2018-03-22T14:31:25.101Z,94.4
2018-03-22T14:41:39.454Z,92.3
2018-03-22T14:51:53.218Z,90.8
2018-03-22T15:02:07.048Z,88.8
2018-03-22T15:12:22.181Z,88.2
2018-03-22T15:22:36.945Z,87.1
2018-03-22T15:32:51.212Z,86.6
2018-03-22T15:43:06.618Z,85.2
2018-03-22T15:53:22.112Z,84.9
2018-03-22T16:03:36.600Z,85
2018-03-22T16:13:50.955Z,85.6
2018-03-22T16:24:06.400Z,86.5
2018-03-22T16:34:21.354Z,87.9
2018-03-22T16:44:36.082Z,88.6
2018-03-22T16:54:50.234Z,88
2018-03-22T17:05:05.660Z,88.4
2018-03-22T17:15:19.561Z,88.5
2018-03-22T17:25:34.882Z,88.5
2018-03-22T17:35:49.246Z,88.5
2018-03-22T17:46:04.595Z,89.2
2018-03-22T17:56:18.468Z,89.8
2018-03-22T18:06:32.841Z,89.7
2018-03-22T18:16:47.201Z,90.9
2018-03-22T18:27:00.946Z,91.2
2018-03-22T18:37:16.316Z,91.6
2018-03-22T18:47:30.984Z,91.8
2018-03-22T18:57:46.013Z,91.6
2018-03-22T19:08:00.741Z,91.6
2018-03-22T19:18:15.659Z,91.5
2018-03-22T19:28:31.096Z,91.6
2018-03-22T19:38:44.801Z,91.4
2018-03-22T19:48:59.401Z,91.5
2018-03-22T19:59:14.326Z,91.6
2018-03-22T20:09:29.073Z,91.5
2018-03-22T20:19:43.087Z,91.5
2018-03-22T20:29:56.904Z,91.5
2018-03-22T20:40:10.920Z,91.5
2018-03-22T20:50:25.868Z,91.4
2018-03-22T21:00:40.976Z,91.5
2018-03-22T21:10:54.798Z,91.2
2018-03-22T21:21:09.167Z,91.1
2018-03-22T21:31:22.934Z,90.6
2018-03-22T21:41:37.832Z,90.8
2018-03-22T21:51:51.777Z,90.8
2018-03-22T22:02:06.302Z,91
2018-03-22T22:12:21.259Z,91.6
2018-03-22T22:22:35.874Z,91.7
2018-03-22T22:32:50.146Z,92.2
2018-03-22T22:53:19.558Z,93.4
2018-03-22T23:03:33.862Z,93.6
2018-03-22T23:13:49.166Z,93.7
2018-03-22T23:24:04.313Z,93.1
2018-03-22T23:34:18.815Z,93.7
2018-03-22T23:44:33.930Z,93.7
2018-03-22T23:54:49.294Z,93.4
